Current Conditions

Updated: 20-Oct-2018 06:21 AM  
Summary / Temperature Wind Rain






Feels like: 50°F

1-hour difference
0.9°F 0.9°F warmer than last hour.

24-hour difference
1.1°F1.1°F warmer than yesterday at this time.

  Today Yesterday
High: 54.9°F
12:02 AM
81.8°F
2:38 PM
Low: 48.8°F
4:57 AM
47.9°F
4:36 AM
Calm NNW
0.0
Gust:  0.0 mph
0 Beaufort - Calm

Today: 1.2 - 1:23 AM
Month: 11.0 mph - Oct 10
Rain Today: 0.00 in
Current Rate (/hr): 0.000 in
Max Rate (/hr):
Rain Yesterday: 0.00 in
Storm Rain: 0.00 in
This Month: 0.40 in
Season Total: 0.40 in
Last Rain Event: 15 days ago
Humidity / Barometer Sun / Moon
Humidity: 82 Decreased 3.0% in the last hour.
Dew Point: 44.8°F  
Barometer: 30.021 inHg  
Baro Trend: Steady
Sunrise: 7:08 AM
Sunset: 6:15 PM
Moonrise: 4:37 PM
Moonset: 3:05 AM
Sky Conditions UV Index
Summary: Clear
Visibility: 8 miles
Clouds: None
KVIS - 5:56 AM PDT
Current: 0.0  None 
Saturday: 4.6  Moderate 
Sunday: 4.6  Moderate 
Air Quality Fire Danger
 Good 
Ozone 27 ppb
PM 2.5 12 μg/m3
6:20 AM PDT
Current: 0  Low 

Local Alerts Local Forecast
Local NWS Alerts
Today

Sunny

High 84
Tonight

Mostly
Clear
Low 56
Sun

Mostly
Sunny
High 84
Sun night

Clear

Low 53
Mon

Sunny

High 82
Mon night

Mostly
Clear
Low 53
Tue

Mostly
Sunny
High 81

Local Radar Local Satellite Neighborhood Cam Sky Cam
Local Radar Local Satellite Neighborhood Cam Sky Cam


Nearby Personal Stations

Weather Underground PWS KCAEXETE7     Weather Underground PWS KCAEXETE6     Weather Underground PWS KCAEXETE11

Nearby Airport Stations

KVIS - Visalia, California, USA
Distance from station: W 14mi, 23km
Updated: Sat, 20-Oct-2018 5:56am PDT
Clear
Clear
 Wind from ESE
Wind: ESE 5 mph , 7 km/h
Temperature: 52°F , 11°C
Dew Point: 41°F , 5°C
Humidity: 67%
Barometer: 30.04 inHg , 1017.3 hPa
Clouds: Clear
Visibility: 8 miles , 13 km
2018/10/20 12:56 KVIS 201256Z AUTO 11004KT 8SM CLR 11/05 A3004 RMK AO2 SLP179 T01060050
KPTV - Porterville, California, USA
Distance from station: SSE 19mi, 31km
Updated: Sat, 20-Oct-2018 5:56am PDT
Clear
Clear
 Wind from E
Wind: E 5 mph , 7 km/h
Temperature: 54°F , 12°C
Dew Point: 36°F , 2°C
Humidity: 51%
Barometer: 30.05 inHg , 1017.6 hPa
Clouds: Clear
Visibility: 10 miles , 16 km
2018/10/20 12:56 KPTV 201256Z AUTO 10004KT 10SM CLR 12/02 A3005 RMK AO2 SLP184 T01170022

Metar display script from Saratoga-Weather.org



Visitor Map